createdAt,value
2023-01-15T00:02:50.677Z,2.62
2023-01-15T00:05:53.331Z,2.75
2023-01-15T00:08:56.158Z,2.58
2023-01-15T00:11:58.707Z,2.65
2023-01-15T00:15:01.002Z,2.63
2023-01-15T00:18:04.185Z,2.72
2023-01-15T00:21:08.294Z,2.69
2023-01-15T00:24:29.064Z,2.63
2023-01-15T00:27:40.693Z,2.67
2023-01-15T00:30:43.899Z,2.72
2023-01-15T00:33:46.244Z,2.68
2023-01-15T00:36:49.055Z,2.78
2023-01-15T00:39:51.367Z,2.72
2023-01-15T00:42:54.677Z,2.65
2023-01-15T00:45:57.079Z,2.58
2023-01-15T00:48:59.577Z,2.51
2023-01-15T00:52:01.735Z,2.51
2023-01-15T00:55:05.389Z,2.61
2023-01-15T00:58:07.637Z,2.67
2023-01-15T01:01:10.218Z,2.53
2023-01-15T01:04:12.553Z,2.44
2023-01-15T01:07:15.308Z,2.32
2023-01-15T01:10:17.622Z,2.23
2023-01-15T01:13:20.362Z,2.10
2023-01-15T01:16:37.376Z,2.09
2023-01-15T01:19:39.859Z,2.10
2023-01-15T01:22:43.269Z,2.04
2023-01-15T01:25:46.072Z,2.09
2023-01-15T01:28:50.440Z,1.98
2023-01-15T01:31:53.045Z,1.91
2023-01-15T01:34:55.395Z,1.89
2023-01-15T01:37:59.395Z,1.95
2023-01-15T01:41:01.589Z,1.92
2023-01-15T01:44:08.982Z,1.96
2023-01-15T01:47:22.916Z,1.92
2023-01-15T01:50:26.087Z,1.92
2023-01-15T01:53:33.244Z,1.87
2023-01-15T01:56:36.640Z,1.78
2023-01-15T01:59:39.819Z,1.78
2023-01-15T02:02:46.337Z,1.75
2023-01-15T02:05:53.968Z,1.62
2023-01-15T02:08:56.441Z,1.56
2023-01-15T02:12:11.668Z,1.60
2023-01-15T02:15:19.089Z,1.66
2023-01-15T02:18:31.659Z,1.61
2023-01-15T02:21:51.535Z,1.66
2023-01-15T02:25:23.439Z,1.71
2023-01-15T02:28:30.863Z,1.70
2023-01-15T02:31:38.662Z,1.76
2023-01-15T02:34:48.905Z,1.76
2023-01-15T02:38:00.182Z,1.70
2023-01-15T02:41:05.469Z,1.74
2023-01-15T02:44:10.704Z,1.78
2023-01-15T02:47:15.502Z,1.80
2023-01-15T02:50:22.939Z,1.78
2023-01-15T02:53:30.011Z,1.76
2023-01-15T02:56:38.474Z,1.77
2023-01-15T02:59:45.406Z,1.67
2023-01-15T03:03:13.855Z,1.63
2023-01-15T03:06:33.027Z,1.67
2023-01-15T03:09:36.892Z,1.60
2023-01-15T03:13:04.894Z,1.64
2023-01-15T03:16:35.935Z,1.72
2023-01-15T03:19:49.687Z,1.79
2023-01-15T03:23:00.727Z,1.73
2023-01-15T03:26:03.292Z,1.75
2023-01-15T03:29:09.683Z,1.66
2023-01-15T03:32:13.405Z,1.48
2023-01-15T03:35:58.765Z,1.61
2023-01-15T03:39:02.003Z,1.68
2023-01-15T03:42:29.261Z,1.67
2023-01-15T03:45:38.176Z,1.58
2023-01-15T03:48:55.673Z,1.62
2023-01-15T03:52:25.344Z,1.69
2023-01-15T03:55:42.027Z,1.68
2023-01-15T03:58:48.166Z,1.77
2023-01-15T04:01:53.430Z,1.79
2023-01-15T04:04:58.906Z,1.74
2023-01-15T04:08:03.038Z,1.77
2023-01-15T04:11:06.700Z,1.87
2023-01-15T04:14:14.709Z,1.88
2023-01-15T04:17:17.544Z,1.77
2023-01-15T04:20:19.809Z,1.85
2023-01-15T04:23:23.565Z,1.70
2023-01-15T04:26:25.802Z,1.78
2023-01-15T04:29:28.505Z,1.73
2023-01-15T04:32:30.739Z,1.80
2023-01-15T04:35:33.297Z,1.87
2023-01-15T04:38:38.575Z,1.94
2023-01-15T04:41:59.642Z,2.02
2023-01-15T04:45:01.925Z,1.99
2023-01-15T04:48:04.720Z,2.04
2023-01-15T04:51:07.614Z,2.05
2023-01-15T04:54:12.685Z,2.02
2023-01-15T04:57:14.998Z,2.01
2023-01-15T05:00:18.191Z,2.01
2023-01-15T05:03:20.454Z,2.06
2023-01-15T05:06:22.938Z,2.06
2023-01-15T05:09:25.209Z,2.10
2023-01-15T05:12:27.737Z,1.98
2023-01-15T05:15:30.159Z,1.99
2023-01-15T05:18:32.710Z,1.99
2023-01-15T05:21:39.840Z,2.01
2023-01-15T05:24:42.399Z,1.93
2023-01-15T05:27:44.648Z,2.06
2023-01-15T05:30:47.164Z,2.04
2023-01-15T05:33:50.475Z,1.98
2023-01-15T05:36:53.203Z,2.01
2023-01-15T05:39:55.330Z,1.96
2023-01-15T05:42:57.885Z,2.05
2023-01-15T05:46:02.379Z,2.08
2023-01-15T05:49:08.315Z,2.17
2023-01-15T05:52:10.512Z,2.11
2023-01-15T05:55:13.020Z,2.15
2023-01-15T05:58:15.332Z,2.17
2023-01-15T06:01:18.199Z,2.18
2023-01-15T06:04:21.828Z,2.25
2023-01-15T06:07:24.181Z,2.25
2023-01-15T06:10:26.677Z,2.29
2023-01-15T06:13:28.860Z,2.39
2023-01-15T06:16:32.290Z,2.40
2023-01-15T06:19:34.467Z,2.27
2023-01-15T06:22:38.975Z,2.30
2023-01-15T06:25:41.188Z,2.36
2023-01-15T06:28:45.042Z,2.36
2023-01-15T06:31:49.250Z,2.40
2023-01-15T06:34:51.934Z,2.37
2023-01-15T06:37:54.279Z,2.38
2023-01-15T06:40:58.974Z,2.46
2023-01-15T06:44:19.846Z,2.52
2023-01-15T06:47:23.438Z,2.55
2023-01-15T06:50:26.486Z,2.60
2023-01-15T06:53:29.047Z,2.60
2023-01-15T06:56:31.300Z,2.61
2023-01-15T06:59:33.919Z,2.62
2023-01-15T07:02:36.433Z,2.62
2023-01-15T07:05:39.308Z,2.67
2023-01-15T07:08:41.533Z,2.69
2023-01-15T07:11:49.956Z,2.67
2023-01-15T07:14:52.240Z,2.71
2023-01-15T07:17:58.112Z,2.79
2023-01-15T07:21:00.857Z,2.86
2023-01-15T07:24:03.807Z,2.81
2023-01-15T07:27:06.651Z,2.92
2023-01-15T07:30:09.683Z,2.97
2023-01-15T07:33:12.896Z,3.05
2023-01-15T07:36:15.503Z,3.10
2023-01-15T07:39:17.933Z,3.12
2023-01-15T07:42:39.143Z,3.20
2023-01-15T07:46:02.402Z,3.17
2023-01-15T07:49:28.832Z,3.10
2023-01-15T07:52:31.153Z,3.14
2023-01-15T07:55:36.108Z,3.14
2023-01-15T07:58:38.340Z,3.16
2023-01-15T08:01:40.909Z,3.33
2023-01-15T08:04:43.490Z,3.27
2023-01-15T08:07:45.917Z,3.26
2023-01-15T08:11:09.210Z,3.40
2023-01-15T08:14:29.993Z,3.37
2023-01-15T08:17:40.420Z,3.37
2023-01-15T08:20:42.778Z,3.39
2023-01-15T08:23:46.653Z,3.41
2023-01-15T08:26:48.967Z,3.47
2023-01-15T08:29:51.496Z,3.45
2023-01-15T08:32:59.601Z,3.44
2023-01-15T08:36:02.344Z,3.49
2023-01-15T08:39:04.816Z,3.51
2023-01-15T08:42:08.292Z,3.58
2023-01-15T08:45:11.122Z,3.69
2023-01-15T08:48:13.769Z,3.69
2023-01-15T08:51:15.997Z,3.75
2023-01-15T08:54:20.242Z,3.80
2023-01-15T08:57:22.445Z,3.87
2023-01-15T09:00:25.295Z,3.92
2023-01-15T09:03:27.565Z,4.00
2023-01-15T09:06:30.176Z,4.10
2023-01-15T09:09:33.948Z,4.11
2023-01-15T09:12:36.546Z,4.00
2023-01-15T09:15:38.788Z,4.03
2023-01-15T09:18:41.484Z,4.15
2023-01-15T09:21:44.067Z,4.17
2023-01-15T09:24:47.159Z,4.21
2023-01-15T09:27:49.896Z,4.17
2023-01-15T09:30:52.460Z,4.12
2023-01-15T09:33:55.572Z,4.15
2023-01-15T09:36:58.044Z,4.15
2023-01-15T09:40:02.321Z,4.19
2023-01-15T09:43:34.085Z,4.19
2023-01-15T09:47:01.315Z,4.26
2023-01-15T09:50:43.856Z,4.40
2023-01-15T09:54:18.355Z,4.60
2023-01-15T09:57:23.887Z,4.58
2023-01-15T10:00:29.839Z,4.72
2023-01-15T10:03:42.398Z,4.75
2023-01-15T10:07:06.044Z,4.85
2023-01-15T10:10:18.036Z,4.87
2023-01-15T10:13:29.488Z,4.81
2023-01-15T10:16:33.929Z,4.77
2023-01-15T10:19:44.434Z,4.83
2023-01-15T10:22:58.784Z,5.01
2023-01-15T10:26:20.449Z,5.09
2023-01-15T10:30:04.543Z,5.16
2023-01-15T10:33:59.371Z,5.20
2023-01-15T10:37:04.663Z,5.27
2023-01-15T10:40:24.948Z,5.33
2023-01-15T10:43:45.696Z,5.44
2023-01-15T10:46:58.335Z,5.60
2023-01-15T10:50:03.824Z,5.78
2023-01-15T10:53:17.737Z,5.70
2023-01-15T10:56:26.296Z,5.75
2023-01-15T10:59:38.272Z,5.86
2023-01-15T11:02:45.095Z,5.83
2023-01-15T11:05:47.752Z,5.70
2023-01-15T11:09:09.174Z,5.71
2023-01-15T11:12:24.197Z,5.71
2023-01-15T11:15:45.356Z,5.82
2023-01-15T11:19:06.515Z,5.93
2023-01-15T11:22:13.452Z,5.77
2023-01-15T11:25:26.160Z,5.79
2023-01-15T11:28:35.376Z,5.76
2023-01-15T11:31:39.138Z,5.73
2023-01-15T11:34:42.117Z,5.74
2023-01-15T11:37:44.463Z,5.81
2023-01-15T11:41:02.135Z,5.89
2023-01-15T11:44:28.771Z,5.90
2023-01-15T11:47:49.674Z,6.06
2023-01-15T11:51:10.663Z,6.13
2023-01-15T11:54:15.173Z,6.21
2023-01-15T11:57:30.391Z,6.27
2023-01-15T12:00:36.961Z,6.31
2023-01-15T12:03:40.967Z,6.38
2023-01-15T12:06:43.278Z,6.35
2023-01-15T12:09:48.793Z,6.37
2023-01-15T12:13:15.841Z,6.46
2023-01-15T12:16:35.884Z,6.61
2023-01-15T12:20:06.019Z,6.61
2023-01-15T12:23:30.673Z,6.63
2023-01-15T12:26:57.588Z,6.78
2023-01-15T12:30:27.766Z,6.78
2023-01-15T12:33:35.883Z,6.91
2023-01-15T12:36:52.133Z,6.86
2023-01-15T12:40:00.600Z,6.99
2023-01-15T12:43:21.791Z,7.10
2023-01-15T12:46:29.161Z,7.02
2023-01-15T12:49:39.774Z,7.09
2023-01-15T12:52:46.332Z,7.09
2023-01-15T12:56:01.916Z,7.07
2023-01-15T12:59:18.537Z,7.13
2023-01-15T13:02:46.430Z,7.23
2023-01-15T13:05:53.630Z,7.24
2023-01-15T13:09:05.175Z,7.19
2023-01-15T13:12:14.143Z,7.26
2023-01-15T13:15:19.673Z,7.18
2023-01-15T13:18:35.655Z,7.32
2023-01-15T13:21:40.137Z,7.26
2023-01-15T13:25:02.025Z,7.37
2023-01-15T13:28:36.690Z,7.37
2023-01-15T13:31:53.896Z,7.41
2023-01-15T13:34:58.302Z,7.43
2023-01-15T13:38:04.830Z,7.42
2023-01-15T13:41:08.696Z,7.38
2023-01-15T13:44:16.929Z,7.31
2023-01-15T13:47:24.411Z,7.26
2023-01-15T13:50:34.305Z,7.33
2023-01-15T13:53:47.403Z,7.30
2023-01-15T13:56:49.543Z,7.26
2023-01-15T13:59:52.055Z,7.30
2023-01-15T14:02:57.671Z,7.24
2023-01-15T14:06:02.895Z,7.25
2023-01-15T14:09:05.902Z,7.24
2023-01-15T14:12:11.308Z,7.23
2023-01-15T14:15:16.243Z,7.20
2023-01-15T14:18:24.717Z,7.20
2023-01-15T14:22:00.374Z,7.25
2023-01-15T14:25:11.865Z,7.26
2023-01-15T14:28:32.919Z,7.25
2023-01-15T14:32:01.768Z,7.25
2023-01-15T14:35:10.458Z,7.26
2023-01-15T14:38:18.032Z,7.31
2023-01-15T14:41:59.503Z,7.28
2023-01-15T14:45:08.098Z,7.26
2023-01-15T14:48:28.731Z,7.25
2023-01-15T14:51:45.857Z,7.27
2023-01-15T14:54:48.607Z,7.32
2023-01-15T14:58:05.252Z,7.34
2023-01-15T15:01:14.759Z,7.26
2023-01-15T15:04:39.034Z,7.31
2023-01-15T15:07:44.709Z,7.25
2023-01-15T15:10:54.847Z,7.27
2023-01-15T15:13:57.846Z,7.24
2023-01-15T15:17:04.459Z,7.21
2023-01-15T15:20:22.919Z,7.24
2023-01-15T15:23:39.683Z,7.17
2023-01-15T15:26:41.979Z,7.18
2023-01-15T15:29:44.782Z,7.22
2023-01-15T15:32:47.864Z,7.15
2023-01-15T15:35:54.719Z,7.18
2023-01-15T15:39:01.504Z,7.15
2023-01-15T15:42:29.638Z,7.14
2023-01-15T15:45:50.949Z,7.22
2023-01-15T15:48:57.970Z,7.23
2023-01-15T15:52:00.162Z,7.17
2023-01-15T15:55:06.041Z,7.15
2023-01-15T15:58:12.785Z,7.19
2023-01-15T16:01:15.416Z,7.15
2023-01-15T16:04:20.323Z,7.17
2023-01-15T16:07:26.983Z,7.17
2023-01-15T16:10:32.114Z,7.15
2023-01-15T16:13:35.296Z,7.13
2023-01-15T16:16:38.296Z,7.14
2023-01-15T16:19:42.050Z,7.14
2023-01-15T16:23:05.591Z,7.14
2023-01-15T16:26:21.436Z,7.13
2023-01-15T16:29:28.320Z,7.09
2023-01-15T16:32:35.596Z,7.11
2023-01-15T16:35:39.063Z,7.14
2023-01-15T16:38:42.919Z,7.15
2023-01-15T16:41:45.498Z,7.15
2023-01-15T16:44:54.152Z,7.15
2023-01-15T16:48:01.148Z,7.12
2023-01-15T16:51:30.375Z,7.15
2023-01-15T16:54:32.721Z,7.07
2023-01-15T16:57:35.932Z,7.07
2023-01-15T17:00:40.320Z,7.09
2023-01-15T17:03:43.435Z,7.01
2023-01-15T17:06:59.111Z,6.98
2023-01-15T17:10:02.980Z,7.01
2023-01-15T17:13:05.500Z,7.03
2023-01-15T17:16:13.686Z,6.96
2023-01-15T17:19:17.257Z,6.87
2023-01-15T17:22:28.027Z,6.79
2023-01-15T17:25:34.872Z,6.79
2023-01-15T17:28:36.977Z,6.67
2023-01-15T17:31:40.116Z,6.59
2023-01-15T17:34:42.381Z,6.55
2023-01-15T17:37:44.842Z,6.53
2023-01-15T17:40:47.063Z,6.45
2023-01-15T17:43:50.343Z,6.45
2023-01-15T17:46:52.583Z,6.50
2023-01-15T17:49:55.108Z,6.42
2023-01-15T17:52:57.261Z,6.35
2023-01-15T17:56:17.970Z,6.37
2023-01-15T17:59:39.020Z,6.28
2023-01-15T18:03:01.443Z,6.30
2023-01-15T18:06:04.278Z,6.38
2023-01-15T18:09:09.201Z,6.34
2023-01-15T18:12:11.698Z,6.33
2023-01-15T18:15:15.109Z,6.31
2023-01-15T18:18:17.600Z,6.31
2023-01-15T18:21:20.181Z,6.35
2023-01-15T18:24:22.681Z,6.35
2023-01-15T18:27:29.863Z,6.33
2023-01-15T18:30:33.674Z,6.31
2023-01-15T18:33:35.832Z,6.32
2023-01-15T18:36:38.452Z,6.33
2023-01-15T18:39:40.677Z,6.34
2023-01-15T18:43:01.953Z,6.26
2023-01-15T18:46:34.845Z,6.24
2023-01-15T18:49:37.712Z,6.17
2023-01-15T18:52:50.052Z,6.18
2023-01-15T18:55:52.533Z,6.07
2023-01-15T18:58:56.651Z,5.98
2023-01-15T19:02:00.154Z,6.01
2023-01-15T19:05:02.538Z,6.00
2023-01-15T19:08:05.053Z,6.07
2023-01-15T19:11:13.658Z,6.09
2023-01-15T19:14:34.569Z,6.08
2023-01-15T19:17:55.485Z,6.03
2023-01-15T19:20:58.127Z,6.11
2023-01-15T19:24:00.324Z,6.12
2023-01-15T19:27:04.201Z,6.02
2023-01-15T19:30:07.988Z,5.95
2023-01-15T19:33:10.912Z,5.98
2023-01-15T19:36:13.075Z,5.99
2023-01-15T19:39:17.628Z,6.04
2023-01-15T19:42:39.329Z,6.00
2023-01-15T19:46:03.402Z,5.91
2023-01-15T19:49:28.959Z,5.95
2023-01-15T19:52:37.973Z,5.96
2023-01-15T19:55:43.720Z,5.82
2023-01-15T19:58:46.333Z,5.79
2023-01-15T20:01:48.584Z,5.74
2023-01-15T20:04:51.166Z,5.79
2023-01-15T20:07:53.589Z,5.81
2023-01-15T20:10:56.053Z,5.76
2023-01-15T20:13:58.308Z,5.76
2023-01-15T20:17:00.888Z,5.71
2023-01-15T20:20:03.370Z,5.77
2023-01-15T20:23:06.379Z,5.74
2023-01-15T20:26:11.772Z,5.71
2023-01-15T20:29:14.204Z,5.68
2023-01-15T20:32:16.335Z,5.75
2023-01-15T20:35:31.389Z,5.71
2023-01-15T20:38:33.707Z,5.74
2023-01-15T20:41:56.064Z,5.71
2023-01-15T20:44:58.269Z,5.71
2023-01-15T20:48:13.603Z,5.67
2023-01-15T20:51:15.966Z,5.67
2023-01-15T20:54:19.830Z,5.64
2023-01-15T20:57:22.213Z,5.66
2023-01-15T21:00:25.454Z,5.57
2023-01-15T21:03:27.599Z,5.60
2023-01-15T21:06:30.041Z,5.59
2023-01-15T21:09:32.159Z,5.56
2023-01-15T21:12:34.847Z,5.54
2023-01-15T21:15:37.075Z,5.61
2023-01-15T21:18:43.115Z,5.55
2023-01-15T21:21:45.318Z,5.55
2023-01-15T21:24:49.536Z,5.54
2023-01-15T21:27:53.036Z,5.55
2023-01-15T21:30:55.871Z,5.42
2023-01-15T21:33:58.740Z,5.41
2023-01-15T21:37:01.224Z,5.36
2023-01-15T21:40:03.632Z,5.38
2023-01-15T21:43:25.302Z,5.29
2023-01-15T21:46:28.325Z,5.27
2023-01-15T21:49:33.887Z,5.24
2023-01-15T21:52:36.705Z,5.23
2023-01-15T21:55:39.232Z,5.26
2023-01-15T21:58:41.562Z,5.27
2023-01-15T22:01:44.221Z,5.12
2023-01-15T22:04:47.070Z,5.19
2023-01-15T22:07:49.293Z,5.18
2023-01-15T22:10:53.124Z,5.21
2023-01-15T22:13:55.360Z,5.24
2023-01-15T22:17:00.777Z,5.25
2023-01-15T22:20:03.569Z,5.23
2023-01-15T22:23:06.055Z,5.15
2023-01-15T22:26:21.722Z,5.20
2023-01-15T22:29:29.760Z,5.18
2023-01-15T22:32:32.112Z,5.14
2023-01-15T22:35:34.788Z,5.00
2023-01-15T22:38:37.018Z,5.03
2023-01-15T22:41:58.171Z,5.00
2023-01-15T22:45:00.834Z,4.91
2023-01-15T22:48:03.765Z,4.97
2023-01-15T22:51:06.370Z,4.89
2023-01-15T22:54:09.122Z,4.93
2023-01-15T22:57:12.990Z,4.96
2023-01-15T23:00:16.280Z,4.85
2023-01-15T23:03:18.495Z,4.88
2023-01-15T23:06:25.143Z,4.86
2023-01-15T23:09:27.440Z,4.85
2023-01-15T23:12:31.512Z,4.84
2023-01-15T23:15:35.253Z,4.80
2023-01-15T23:18:37.942Z,4.85
2023-01-15T23:21:40.986Z,4.81
2023-01-15T23:24:43.657Z,4.71
2023-01-15T23:27:45.926Z,4.81
2023-01-15T23:30:48.512Z,4.80
2023-01-15T23:33:50.903Z,4.78
2023-01-15T23:36:53.545Z,4.83
2023-01-15T23:39:55.835Z,4.78
2023-01-15T23:43:16.792Z,4.70
2023-01-15T23:46:32.825Z,4.68
2023-01-15T23:49:35.510Z,4.69
2023-01-15T23:52:37.737Z,4.70
2023-01-15T23:55:40.365Z,4.75
2023-01-15T23:58:42.680Z,4.75
